sensor_id;sensor_type;location;lat;lon;timestamp;P1;durP1;ratioP1;P2;durP2;ratioP2
68108;SDS011;54893;49.864;19.084;2024-01-30T00:02:58;61.00;;;22.10;;
68108;SDS011;54893;49.864;19.084;2024-01-30T00:07:58;66.50;;;22.97;;
68108;SDS011;54893;49.864;19.084;2024-01-30T00:12:59;70.17;;;23.70;;
68108;SDS011;54893;49.864;19.084;2024-01-30T00:17:59;69.63;;;24.33;;
68108;SDS011;54893;49.864;19.084;2024-01-30T00:22:59;128.90;;;36.07;;
68108;SDS011;54893;49.864;19.084;2024-01-30T00:28:00;86.80;;;30.27;;
68108;SDS011;54893;49.864;19.084;2024-01-30T00:33:00;80.37;;;29.10;;
68108;SDS011;54893;49.864;19.084;2024-01-30T00:38:00;69.17;;;23.33;;
68108;SDS011;54893;49.864;19.084;2024-01-30T00:43:01;74.37;;;25.00;;
68108;SDS011;54893;49.864;19.084;2024-01-30T00:48:01;83.10;;;28.77;;
68108;SDS011;54893;49.864;19.084;2024-01-30T00:53:01;75.33;;;25.57;;
68108;SDS011;54893;49.864;19.084;2024-01-30T00:58:02;80.77;;;28.17;;
68108;SDS011;54893;49.864;19.084;2024-01-30T01:03:03;86.80;;;30.23;;
68108;SDS011;54893;49.864;19.084;2024-01-30T01:08:03;88.40;;;29.47;;
68108;SDS011;54893;49.864;19.084;2024-01-30T01:13:04;89.82;;;30.95;;
68108;SDS011;54893;49.864;19.084;2024-01-30T01:18:04;104.90;;;34.73;;
68108;SDS011;54893;49.864;19.084;2024-01-30T01:23:05;94.97;;;33.17;;
68108;SDS011;54893;49.864;19.084;2024-01-30T01:28:05;97.67;;;34.20;;
68108;SDS011;54893;49.864;19.084;2024-01-30T01:33:06;89.40;;;32.28;;
68108;SDS011;54893;49.864;19.084;2024-01-30T01:38:06;104.10;;;35.73;;
68108;SDS011;54893;49.864;19.084;2024-01-30T01:43:07;102.20;;;37.10;;
68108;SDS011;54893;49.864;19.084;2024-01-30T01:48:07;102.47;;;38.03;;
68108;SDS011;54893;49.864;19.084;2024-01-30T01:53:09;100.47;;;36.10;;
68108;SDS011;54893;49.864;19.084;2024-01-30T01:58:09;108.50;;;37.35;;
68108;SDS011;54893;49.864;19.084;2024-01-30T02:03:12;109.27;;;36.70;;
68108;SDS011;54893;49.864;19.084;2024-01-30T02:08:13;106.28;;;36.35;;
68108;SDS011;54893;49.864;19.084;2024-01-30T02:13:14;113.23;;;40.70;;
68108;SDS011;54893;49.864;19.084;2024-01-30T02:18:14;116.53;;;39.30;;
68108;SDS011;54893;49.864;19.084;2024-01-30T02:23:15;104.07;;;35.27;;
68108;SDS011;54893;49.864;19.084;2024-01-30T02:28:16;108.27;;;38.30;;
68108;SDS011;54893;49.864;19.084;2024-01-30T02:33:16;102.13;;;37.87;;
68108;SDS011;54893;49.864;19.084;2024-01-30T02:38:17;105.00;;;37.53;;
68108;SDS011;54893;49.864;19.084;2024-01-30T02:43:17;114.00;;;37.50;;
68108;SDS011;54893;49.864;19.084;2024-01-30T02:48:17;118.30;;;36.70;;
68108;SDS011;54893;49.864;19.084;2024-01-30T02:53:18;108.85;;;37.17;;
68108;SDS011;54893;49.864;19.084;2024-01-30T02:58:18;108.07;;;37.03;;
68108;SDS011;54893;49.864;19.084;2024-01-30T03:03:19;104.23;;;36.57;;
68108;SDS011;54893;49.864;19.084;2024-01-30T03:08:19;114.13;;;39.93;;
68108;SDS011;54893;49.864;19.084;2024-01-30T03:13:20;110.50;;;39.30;;
68108;SDS011;54893;49.864;19.084;2024-01-30T03:18:21;115.43;;;40.83;;
68108;SDS011;54893;49.864;19.084;2024-01-30T03:23:21;102.83;;;37.63;;
68108;SDS011;54893;49.864;19.084;2024-01-30T03:28:22;116.17;;;40.83;;
68108;SDS011;54893;49.864;19.084;2024-01-30T03:33:22;111.17;;;36.67;;
68108;SDS011;54893;49.864;19.084;2024-01-30T03:38:22;100.07;;;35.27;;
68108;SDS011;54893;49.864;19.084;2024-01-30T03:43:23;113.33;;;40.03;;
68108;SDS011;54893;49.864;19.084;2024-01-30T03:48:23;104.93;;;36.67;;
68108;SDS011;54893;49.864;19.084;2024-01-30T03:53:24;99.87;;;35.73;;
68108;SDS011;54893;49.864;19.084;2024-01-30T03:58:24;106.07;;;36.73;;
68108;SDS011;54893;49.864;19.084;2024-01-30T04:03:25;103.17;;;36.50;;
68108;SDS011;54893;49.864;19.084;2024-01-30T04:08:25;101.57;;;36.87;;
68108;SDS011;54893;49.864;19.084;2024-01-30T04:13:26;107.90;;;37.60;;
68108;SDS011;54893;49.864;19.084;2024-01-30T04:18:26;115.07;;;40.33;;
68108;SDS011;54893;49.864;19.084;2024-01-30T04:23:27;111.87;;;39.60;;
68108;SDS011;54893;49.864;19.084;2024-01-30T04:28:27;124.57;;;43.33;;
68108;SDS011;54893;49.864;19.084;2024-01-30T04:33:27;110.97;;;39.63;;
68108;SDS011;54893;49.864;19.084;2024-01-30T04:38:28;101.77;;;37.37;;
68108;SDS011;54893;49.864;19.084;2024-01-30T04:43:28;110.37;;;39.20;;
68108;SDS011;54893;49.864;19.084;2024-01-30T04:48:28;115.77;;;39.50;;
68108;SDS011;54893;49.864;19.084;2024-01-30T04:53:30;107.47;;;37.87;;
68108;SDS011;54893;49.864;19.084;2024-01-30T04:58:31;116.00;;;41.45;;
68108;SDS011;54893;49.864;19.084;2024-01-30T05:03:34;124.67;;;44.53;;
68108;SDS011;54893;49.864;19.084;2024-01-30T05:08:35;119.57;;;42.13;;
68108;SDS011;54893;49.864;19.084;2024-01-30T05:13:38;119.18;;;42.80;;
68108;SDS011;54893;49.864;19.084;2024-01-30T05:18:38;119.67;;;41.57;;
68108;SDS011;54893;49.864;19.084;2024-01-30T05:23:39;109.03;;;39.10;;
68108;SDS011;54893;49.864;19.084;2024-01-30T05:28:41;118.80;;;41.43;;
68108;SDS011;54893;49.864;19.084;2024-01-30T05:33:44;112.80;;;38.08;;
68108;SDS011;54893;49.864;19.084;2024-01-30T05:38:44;115.10;;;39.67;;
68108;SDS011;54893;49.864;19.084;2024-01-30T05:43:45;116.67;;;41.30;;
68108;SDS011;54893;49.864;19.084;2024-01-30T05:48:45;120.30;;;45.33;;
68108;SDS011;54893;49.864;19.084;2024-01-30T05:53:45;108.83;;;37.93;;
68108;SDS011;54893;49.864;19.084;2024-01-30T05:58:46;114.63;;;38.83;;
68108;SDS011;54893;49.864;19.084;2024-01-30T06:03:46;105.03;;;36.23;;
68108;SDS011;54893;49.864;19.084;2024-01-30T06:08:47;105.13;;;35.27;;
68108;SDS011;54893;49.864;19.084;2024-01-30T06:13:47;103.60;;;34.90;;
68108;SDS011;54893;49.864;19.084;2024-01-30T06:18:47;98.50;;;35.07;;
68108;SDS011;54893;49.864;19.084;2024-01-30T06:23:48;109.90;;;39.92;;
68108;SDS011;54893;49.864;19.084;2024-01-30T06:28:48;99.57;;;34.73;;
68108;SDS011;54893;49.864;19.084;2024-01-30T06:33:49;98.17;;;34.87;;
68108;SDS011;54893;49.864;19.084;2024-01-30T06:38:50;107.53;;;38.85;;
68108;SDS011;54893;49.864;19.084;2024-01-30T06:43:50;108.53;;;38.10;;
68108;SDS011;54893;49.864;19.084;2024-01-30T06:48:50;109.20;;;37.43;;
68108;SDS011;54893;49.864;19.084;2024-01-30T06:53:53;106.47;;;36.63;;
68108;SDS011;54893;49.864;19.084;2024-01-30T06:58:53;106.40;;;37.03;;
68108;SDS011;54893;49.864;19.084;2024-01-30T07:03:54;103.37;;;36.00;;
68108;SDS011;54893;49.864;19.084;2024-01-30T07:08:54;103.83;;;38.37;;
68108;SDS011;54893;49.864;19.084;2024-01-30T07:13:55;104.80;;;36.53;;
68108;SDS011;54893;49.864;19.084;2024-01-30T07:18:55;107.87;;;38.50;;
68108;SDS011;54893;49.864;19.084;2024-01-30T07:23:56;103.80;;;37.17;;
68108;SDS011;54893;49.864;19.084;2024-01-30T07:28:57;131.17;;;49.87;;
68108;SDS011;54893;49.864;19.084;2024-01-30T07:33:57;128.30;;;49.43;;
68108;SDS011;54893;49.864;19.084;2024-01-30T07:38:58;120.97;;;45.03;;
68108;SDS011;54893;49.864;19.084;2024-01-30T07:43:58;112.37;;;39.37;;
68108;SDS011;54893;49.864;19.084;2024-01-30T07:48:59;105.28;;;39.90;;
68108;SDS011;54893;49.864;19.084;2024-01-30T07:54:00;101.15;;;37.42;;
68108;SDS011;54893;49.864;19.084;2024-01-30T07:59:00;110.27;;;40.53;;
68108;SDS011;54893;49.864;19.084;2024-01-30T08:04:00;107.33;;;38.10;;
68108;SDS011;54893;49.864;19.084;2024-01-30T08:09:01;131.00;;;49.83;;
68108;SDS011;54893;49.864;19.084;2024-01-30T08:14:02;87.67;;;32.53;;
68108;SDS011;54893;49.864;19.084;2024-01-30T08:19:02;89.50;;;34.47;;
68108;SDS011;54893;49.864;19.084;2024-01-30T08:24:03;77.37;;;27.67;;
68108;SDS011;54893;49.864;19.084;2024-01-30T08:29:04;64.13;;;23.35;;
68108;SDS011;54893;49.864;19.084;2024-01-30T08:34:04;47.53;;;17.83;;
68108;SDS011;54893;49.864;19.084;2024-01-30T08:39:05;47.70;;;16.87;;
68108;SDS011;54893;49.864;19.084;2024-01-30T08:44:05;45.87;;;16.07;;
68108;SDS011;54893;49.864;19.084;2024-01-30T08:49:06;46.07;;;16.83;;
68108;SDS011;54893;49.864;19.084;2024-01-30T08:54:06;52.00;;;21.00;;
68108;SDS011;54893;49.864;19.084;2024-01-30T08:59:07;60.67;;;24.50;;
68108;SDS011;54893;49.864;19.084;2024-01-30T09:04:08;59.58;;;23.42;;
68108;SDS011;54893;49.864;19.084;2024-01-30T09:09:09;61.27;;;22.70;;
68108;SDS011;54893;49.864;19.084;2024-01-30T09:14:09;56.03;;;21.53;;
68108;SDS011;54893;49.864;19.084;2024-01-30T09:19:09;61.67;;;22.00;;
68108;SDS011;54893;49.864;19.084;2024-01-30T09:24:10;58.93;;;22.63;;
68108;SDS011;54893;49.864;19.084;2024-01-30T09:29:10;67.07;;;22.83;;
68108;SDS011;54893;49.864;19.084;2024-01-30T09:34:11;64.85;;;22.90;;
68108;SDS011;54893;49.864;19.084;2024-01-30T09:39:11;55.03;;;20.77;;
68108;SDS011;54893;49.864;19.084;2024-01-30T09:44:15;62.10;;;21.70;;
68108;SDS011;54893;49.864;19.084;2024-01-30T09:49:16;63.33;;;24.87;;
68108;SDS011;54893;49.864;19.084;2024-01-30T09:54:18;71.07;;;29.60;;
68108;SDS011;54893;49.864;19.084;2024-01-30T09:59:19;62.73;;;23.07;;
68108;SDS011;54893;49.864;19.084;2024-01-30T10:04:19;64.47;;;24.17;;
68108;SDS011;54893;49.864;19.084;2024-01-30T10:09:20;75.03;;;27.53;;
68108;SDS011;54893;49.864;19.084;2024-01-30T10:14:21;70.65;;;26.70;;
68108;SDS011;54893;49.864;19.084;2024-01-30T10:19:21;64.63;;;25.43;;
68108;SDS011;54893;49.864;19.084;2024-01-30T10:24:25;61.30;;;21.90;;
68108;SDS011;54893;49.864;19.084;2024-01-30T10:29:26;56.60;;;21.63;;
68108;SDS011;54893;49.864;19.084;2024-01-30T10:34:28;54.33;;;21.50;;
68108;SDS011;54893;49.864;19.084;2024-01-30T10:39:28;52.80;;;20.90;;
68108;SDS011;54893;49.864;19.084;2024-01-30T10:44:37;51.40;;;19.48;;
68108;SDS011;54893;49.864;19.084;2024-01-30T10:49:47;51.70;;;21.67;;
68108;SDS011;54893;49.864;19.084;2024-01-30T10:54:49;41.08;;;17.73;;
68108;SDS011;54893;49.864;19.084;2024-01-30T10:59:51;38.65;;;16.20;;
68108;SDS011;54893;49.864;19.084;2024-01-30T11:04:57;40.80;;;16.45;;
68108;SDS011;54893;49.864;19.084;2024-01-30T11:15:05;39.07;;;15.13;;
68108;SDS011;54893;49.864;19.084;2024-01-30T11:20:10;34.37;;;13.07;;
68108;SDS011;54893;49.864;19.084;2024-01-30T11:25:21;32.95;;;13.07;;
68108;SDS011;54893;49.864;19.084;2024-01-30T11:35:26;36.13;;;13.38;;
68108;SDS011;54893;49.864;19.084;2024-01-30T11:40:27;38.87;;;13.43;;
68108;SDS011;54893;49.864;19.084;2024-01-30T11:45:29;36.92;;;13.00;;
68108;SDS011;54893;49.864;19.084;2024-01-30T11:50:31;33.10;;;12.37;;
68108;SDS011;54893;49.864;19.084;2024-01-30T11:55:32;30.38;;;12.20;;
68108;SDS011;54893;49.864;19.084;2024-01-30T12:00:34;32.00;;;12.18;;
68108;SDS011;54893;49.864;19.084;2024-01-30T12:05:34;38.73;;;14.37;;
68108;SDS011;54893;49.864;19.084;2024-01-30T12:10:35;45.10;;;17.20;;
68108;SDS011;54893;49.864;19.084;2024-01-30T12:15:36;30.00;;;11.43;;
68108;SDS011;54893;49.864;19.084;2024-01-30T12:20:36;28.40;;;10.57;;
68108;SDS011;54893;49.864;19.084;2024-01-30T12:25:36;31.00;;;12.57;;
68108;SDS011;54893;49.864;19.084;2024-01-30T12:30:37;25.37;;;10.47;;
68108;SDS011;54893;49.864;19.084;2024-01-30T12:35:37;23.10;;;9.27;;
68108;SDS011;54893;49.864;19.084;2024-01-30T12:40:38;22.67;;;9.60;;
68108;SDS011;54893;49.864;19.084;2024-01-30T12:45:38;36.63;;;13.70;;
68108;SDS011;54893;49.864;19.084;2024-01-30T12:50:38;40.10;;;15.37;;
68108;SDS011;54893;49.864;19.084;2024-01-30T12:55:39;40.30;;;15.97;;
68108;SDS011;54893;49.864;19.084;2024-01-30T13:00:39;38.77;;;15.50;;
68108;SDS011;54893;49.864;19.084;2024-01-30T13:05:39;38.63;;;14.80;;
68108;SDS011;54893;49.864;19.084;2024-01-30T13:10:40;38.27;;;14.03;;
68108;SDS011;54893;49.864;19.084;2024-01-30T13:15:40;36.97;;;14.40;;
68108;SDS011;54893;49.864;19.084;2024-01-30T13:20:41;34.90;;;13.73;;
68108;SDS011;54893;49.864;19.084;2024-01-30T13:25:42;30.98;;;13.07;;
68108;SDS011;54893;49.864;19.084;2024-01-30T13:30:42;33.90;;;12.87;;
68108;SDS011;54893;49.864;19.084;2024-01-30T13:35:42;38.57;;;14.87;;
68108;SDS011;54893;49.864;19.084;2024-01-30T13:40:43;39.70;;;15.35;;
68108;SDS011;54893;49.864;19.084;2024-01-30T13:45:44;42.93;;;15.87;;
68108;SDS011;54893;49.864;19.084;2024-01-30T13:50:44;41.43;;;15.53;;
68108;SDS011;54893;49.864;19.084;2024-01-30T13:55:44;36.60;;;13.67;;
68108;SDS011;54893;49.864;19.084;2024-01-30T14:00:45;41.63;;;15.40;;
68108;SDS011;54893;49.864;19.084;2024-01-30T14:05:45;37.20;;;14.40;;
68108;SDS011;54893;49.864;19.084;2024-01-30T14:10:46;45.17;;;16.27;;
68108;SDS011;54893;49.864;19.084;2024-01-30T14:15:46;44.17;;;15.73;;
68108;SDS011;54893;49.864;19.084;2024-01-30T14:20:46;40.43;;;14.90;;
68108;SDS011;54893;49.864;19.084;2024-01-30T14:25:47;36.70;;;14.33;;
68108;SDS011;54893;49.864;19.084;2024-01-30T14:30:47;39.83;;;14.50;;
68108;SDS011;54893;49.864;19.084;2024-01-30T14:35:48;41.23;;;15.40;;
68108;SDS011;54893;49.864;19.084;2024-01-30T14:40:48;34.33;;;12.03;;
68108;SDS011;54893;49.864;19.084;2024-01-30T14:45:48;32.20;;;11.40;;
68108;SDS011;54893;49.864;19.084;2024-01-30T14:50:50;31.70;;;11.47;;
68108;SDS011;54893;49.864;19.084;2024-01-30T14:55:50;32.30;;;10.23;;
68108;SDS011;54893;49.864;19.084;2024-01-30T15:00:50;19.03;;;5.70;;
68108;SDS011;54893;49.864;19.084;2024-01-30T15:05:51;15.37;;;3.90;;
68108;SDS011;54893;49.864;19.084;2024-01-30T15:10:51;12.57;;;3.83;;
68108;SDS011;54893;49.864;19.084;2024-01-30T15:15:52;15.30;;;4.77;;
68108;SDS011;54893;49.864;19.084;2024-01-30T15:20:52;12.32;;;4.60;;
68108;SDS011;54893;49.864;19.084;2024-01-30T15:25:53;14.00;;;5.03;;
68108;SDS011;54893;49.864;19.084;2024-01-30T15:30:53;12.73;;;4.70;;
68108;SDS011;54893;49.864;19.084;2024-01-30T15:35:53;15.23;;;5.10;;
68108;SDS011;54893;49.864;19.084;2024-01-30T15:40:54;12.52;;;3.95;;
68108;SDS011;54893;49.864;19.084;2024-01-30T15:45:55;9.63;;;3.55;;
68108;SDS011;54893;49.864;19.084;2024-01-30T15:50:55;15.23;;;4.80;;
68108;SDS011;54893;49.864;19.084;2024-01-30T15:55:56;13.70;;;4.77;;
68108;SDS011;54893;49.864;19.084;2024-01-30T16:00:56;14.10;;;4.83;;
68108;SDS011;54893;49.864;19.084;2024-01-30T16:05:56;11.03;;;3.97;;
68108;SDS011;54893;49.864;19.084;2024-01-30T16:10:57;15.07;;;5.20;;
68108;SDS011;54893;49.864;19.084;2024-01-30T16:15:57;24.27;;;6.63;;
68108;SDS011;54893;49.864;19.084;2024-01-30T16:20:58;25.90;;;8.70;;
68108;SDS011;54893;49.864;19.084;2024-01-30T16:25:58;33.83;;;10.98;;
68108;SDS011;54893;49.864;19.084;2024-01-30T16:30:59;30.25;;;10.68;;
68108;SDS011;54893;49.864;19.084;2024-01-30T16:36:02;35.67;;;12.20;;
68108;SDS011;54893;49.864;19.084;2024-01-30T16:41:03;34.53;;;11.05;;
68108;SDS011;54893;49.864;19.084;2024-01-30T16:46:04;35.03;;;11.40;;
68108;SDS011;54893;49.864;19.084;2024-01-30T16:51:04;32.67;;;10.17;;
68108;SDS011;54893;49.864;19.084;2024-01-30T16:56:05;27.97;;;9.73;;
68108;SDS011;54893;49.864;19.084;2024-01-30T17:01:05;26.70;;;9.82;;
68108;SDS011;54893;49.864;19.084;2024-01-30T17:06:06;39.07;;;14.40;;
68108;SDS011;54893;49.864;19.084;2024-01-30T17:11:08;31.27;;;10.73;;
68108;SDS011;54893;49.864;19.084;2024-01-30T17:16:08;32.42;;;11.60;;
68108;SDS011;54893;49.864;19.084;2024-01-30T17:21:15;32.40;;;12.03;;
68108;SDS011;54893;49.864;19.084;2024-01-30T17:26:16;33.92;;;11.23;;
68108;SDS011;54893;49.864;19.084;2024-01-30T17:31:17;36.57;;;12.60;;
68108;SDS011;54893;49.864;19.084;2024-01-30T17:36:17;25.97;;;9.20;;
68108;SDS011;54893;49.864;19.084;2024-01-30T17:41:18;34.87;;;10.70;;
68108;SDS011;54893;49.864;19.084;2024-01-30T17:46:18;50.07;;;16.00;;
68108;SDS011;54893;49.864;19.084;2024-01-30T17:51:18;51.27;;;16.83;;
68108;SDS011;54893;49.864;19.084;2024-01-30T17:56:19;72.47;;;22.43;;
68108;SDS011;54893;49.864;19.084;2024-01-30T18:01:21;55.47;;;16.80;;
68108;SDS011;54893;49.864;19.084;2024-01-30T18:06:21;47.17;;;15.10;;
68108;SDS011;54893;49.864;19.084;2024-01-30T18:11:22;43.95;;;13.90;;
68108;SDS011;54893;49.864;19.084;2024-01-30T18:16:22;36.40;;;12.17;;
68108;SDS011;54893;49.864;19.084;2024-01-30T18:21:24;27.27;;;9.07;;
68108;SDS011;54893;49.864;19.084;2024-01-30T18:26:24;19.60;;;7.50;;
68108;SDS011;54893;49.864;19.084;2024-01-30T18:31:26;22.48;;;8.43;;
68108;SDS011;54893;49.864;19.084;2024-01-30T18:36:28;25.23;;;8.47;;
68108;SDS011;54893;49.864;19.084;2024-01-30T18:41:28;25.57;;;9.33;;
68108;SDS011;54893;49.864;19.084;2024-01-30T18:46:28;36.10;;;11.83;;
68108;SDS011;54893;49.864;19.084;2024-01-30T18:51:29;41.90;;;14.67;;
68108;SDS011;54893;49.864;19.084;2024-01-30T18:56:30;59.17;;;19.00;;
68108;SDS011;54893;49.864;19.084;2024-01-30T19:01:30;50.07;;;16.20;;
68108;SDS011;54893;49.864;19.084;2024-01-30T19:06:31;41.40;;;13.33;;
68108;SDS011;54893;49.864;19.084;2024-01-30T19:11:32;45.30;;;13.63;;
68108;SDS011;54893;49.864;19.084;2024-01-30T19:16:32;30.37;;;10.77;;
68108;SDS011;54893;49.864;19.084;2024-01-30T19:21:33;22.83;;;8.20;;
68108;SDS011;54893;49.864;19.084;2024-01-30T19:26:33;29.07;;;9.03;;
68108;SDS011;54893;49.864;19.084;2024-01-30T19:31:34;30.90;;;9.73;;
68108;SDS011;54893;49.864;19.084;2024-01-30T19:36:34;43.50;;;12.57;;
68108;SDS011;54893;49.864;19.084;2024-01-30T19:41:36;101.65;;;33.40;;
68108;SDS011;54893;49.864;19.084;2024-01-30T19:46:36;77.37;;;22.20;;
68108;SDS011;54893;49.864;19.084;2024-01-30T19:51:37;61.00;;;19.70;;
68108;SDS011;54893;49.864;19.084;2024-01-30T19:56:38;83.38;;;25.70;;
68108;SDS011;54893;49.864;19.084;2024-01-30T20:01:38;167.63;;;61.57;;
68108;SDS011;54893;49.864;19.084;2024-01-30T20:06:39;119.53;;;42.20;;
68108;SDS011;54893;49.864;19.084;2024-01-30T20:11:39;151.27;;;53.10;;
68108;SDS011;54893;49.864;19.084;2024-01-30T20:16:41;101.47;;;36.00;;
68108;SDS011;54893;49.864;19.084;2024-01-30T20:21:43;67.80;;;20.90;;
68108;SDS011;54893;49.864;19.084;2024-01-30T20:26:44;60.08;;;20.10;;
68108;SDS011;54893;49.864;19.084;2024-01-30T20:31:45;62.60;;;20.30;;
68108;SDS011;54893;49.864;19.084;2024-01-30T20:36:45;59.03;;;19.53;;
68108;SDS011;54893;49.864;19.084;2024-01-30T20:41:47;55.47;;;16.52;;
68108;SDS011;54893;49.864;19.084;2024-01-30T20:46:48;52.83;;;17.17;;
68108;SDS011;54893;49.864;19.084;2024-01-30T20:51:50;43.73;;;14.53;;
68108;SDS011;54893;49.864;19.084;2024-01-30T20:57:15;38.00;;;13.70;;
68108;SDS011;54893;49.864;19.084;2024-01-30T21:02:16;47.53;;;14.47;;
68108;SDS011;54893;49.864;19.084;2024-01-30T21:07:16;39.57;;;13.17;;
68108;SDS011;54893;49.864;19.084;2024-01-30T21:12:16;35.20;;;10.73;;
68108;SDS011;54893;49.864;19.084;2024-01-30T21:17:17;35.85;;;12.98;;
68108;SDS011;54893;49.864;19.084;2024-01-30T21:22:17;107.05;;;25.73;;
68108;SDS011;54893;49.864;19.084;2024-01-30T21:27:18;77.77;;;19.37;;
68108;SDS011;54893;49.864;19.084;2024-01-30T21:32:18;51.50;;;16.63;;
68108;SDS011;54893;49.864;19.084;2024-01-30T21:37:18;46.30;;;13.30;;
68108;SDS011;54893;49.864;19.084;2024-01-30T21:42:19;39.07;;;14.60;;
68108;SDS011;54893;49.864;19.084;2024-01-30T21:47:19;29.80;;;11.27;;
68108;SDS011;54893;49.864;19.084;2024-01-30T21:52:20;34.97;;;11.97;;
68108;SDS011;54893;49.864;19.084;2024-01-30T21:57:20;32.27;;;11.10;;
68108;SDS011;54893;49.864;19.084;2024-01-30T22:02:21;30.37;;;10.73;;
68108;SDS011;54893;49.864;19.084;2024-01-30T22:07:21;36.60;;;11.40;;
68108;SDS011;54893;49.864;19.084;2024-01-30T22:12:21;32.63;;;10.60;;
68108;SDS011;54893;49.864;19.084;2024-01-30T22:17:22;44.80;;;14.67;;
68108;SDS011;54893;49.864;19.084;2024-01-30T22:22:23;44.87;;;13.30;;
68108;SDS011;54893;49.864;19.084;2024-01-30T22:27:23;35.03;;;11.17;;
68108;SDS011;54893;49.864;19.084;2024-01-30T22:32:23;35.67;;;11.57;;
68108;SDS011;54893;49.864;19.084;2024-01-30T22:37:24;32.17;;;10.63;;
68108;SDS011;54893;49.864;19.084;2024-01-30T22:42:24;34.67;;;11.77;;
68108;SDS011;54893;49.864;19.084;2024-01-30T22:47:25;31.47;;;9.90;;
68108;SDS011;54893;49.864;19.084;2024-01-30T22:52:25;146.37;;;28.17;;
68108;SDS011;54893;49.864;19.084;2024-01-30T22:57:26;94.97;;;23.90;;
68108;SDS011;54893;49.864;19.084;2024-01-30T23:02:26;43.10;;;12.80;;
68108;SDS011;54893;49.864;19.084;2024-01-30T23:07:26;33.07;;;9.90;;
68108;SDS011;54893;49.864;19.084;2024-01-30T23:12:27;31.73;;;11.20;;
68108;SDS011;54893;49.864;19.084;2024-01-30T23:17:28;28.23;;;9.23;;
68108;SDS011;54893;49.864;19.084;2024-01-30T23:22:29;28.60;;;9.18;;
68108;SDS011;54893;49.864;19.084;2024-01-30T23:27:29;26.03;;;8.33;;
68108;SDS011;54893;49.864;19.084;2024-01-30T23:32:30;29.17;;;8.03;;
68108;SDS011;54893;49.864;19.084;2024-01-30T23:37:30;24.53;;;9.33;;
68108;SDS011;54893;49.864;19.084;2024-01-30T23:42:31;25.53;;;9.30;;
68108;SDS011;54893;49.864;19.084;2024-01-30T23:47:31;29.73;;;10.70;;
68108;SDS011;54893;49.864;19.084;2024-01-30T23:52:32;31.70;;;11.35;;
68108;SDS011;54893;49.864;19.084;2024-01-30T23:57:35;31.70;;;11.17;;
